Where is Aldeia avieira de Barreira da Bica in Portugal?

 

Aldeia avieira de Barreira da Bica is situated in the region Santarem in Portugal!

Search the name of a city:

Aldeburgh, Aldeia Mithethe, Aldeia dos Ruins, Alderskog, Aldeia Mazamba

Here you will find the location of Aldeia avieira de Barreira da Bica on a map.
To see how it currently looks like outside, below are some pictures of the area from online web cameras.
You can also find the distance to the main cities in the region and to cities in the rest of Portugal.

All places in the world called .


Where is Aldeia avieira de Barreira da Bica on the map?




Webcams near Aldeia avieira de Barreira da Bica

Vasco Carão › South: Garrocheira, Benavente − Airport.


Vasco Carão › South: Garrocheira, Benavente − Airport - Day time
Current
Vasco Carão › South: Garrocheira, Benavente − Airport - Current

Benavente › North-East: AIrport, METAR: BENAV 180005Z 36004KT 17/14 Q1015.


Benavente › North-East: AIrport, METAR: BENAV 180005Z 36004KT 17/14 Q1015 - Day time
Current
Benavente › North-East: AIrport, METAR: BENAV 180005Z 36004KT 17/14 Q1015 - Current

Abrantes › North-West: › North-West: Zona Alta (Torre).


Abrantes › North-West: › North-West: Zona Alta (Torre) - Day time
Current
Abrantes › North-West: › North-West: Zona Alta (Torre) - Current

Webcams provided by webcams.travel


Distances

Where is Aldeia avieira de Barreira da Bica relative to other places?

Top 10 cities in Santarem and distance from Aldeia avieira de Barreira da Bica.

City#Populationkmmiles
Santarém12938585
Entroncamento2198872415
Tomar3191683924
Torres Novas4145262314
Samora Correia5141544528
Abrantes6136464025
Ourém7127293924
Rio Maior8120642717
Fátima9117983723
Almeirim1011556106

Top 10 cities in Portugal and distance from Aldeia avieira de Barreira da Bica.

City # Populationkmmiles
Lisbon15177987748
Porto2249630206128
Amadora31788568050
Braga4121393251156
Setúbal51171098955
Coimbra610658010364
Queluz71033988050
Funchal8980411049652
Vila Nova de Gaia970810204127
Loures10662307144



Alerts and advice Portugal

Advice and information about traveling and security in Portugal.

With a travel advise, tourists can be informed about security risks during traveling or vacation in a foreign country. Be informed about the risks of kidnapping, armed robbery, bombings, natural disasters or war. Know which areas are unsafe in Portugalo. Be vigilant, or avoid certain areas when on vacation in Portugal.

Alerts and advice



Travel information Portugal

Information on travel documents, visa applications and the cost of a visa.
Contact information of embassies in Portugal.
Different types of travel insurance.

Travel information

Info

Statistics and Geographics

Portugal is made up of 15299 cities in 20 regions.

The region Santarem has 1174 cities.

Where is Aldeia avieira de Barreira da Bica in Portugal?